createdAt,value
2023-03-15T00:00:19.674Z,3.92
2023-03-15T00:02:46.229Z,1.95
2023-03-15T00:05:13.093Z,1.88
2023-03-15T00:07:39.694Z,1.77
2023-03-15T00:10:06.558Z,2.45
2023-03-15T00:12:34.442Z,3.28
2023-03-15T00:15:01.035Z,1.98
2023-03-15T00:17:27.592Z,1.67
2023-03-15T00:19:54.205Z,2.08
2023-03-15T00:22:23.288Z,1.65
2023-03-15T00:24:49.940Z,2.28
2023-03-15T00:27:16.534Z,2.03
2023-03-15T00:29:43.097Z,2.03
2023-03-15T00:32:09.862Z,2.83
2023-03-15T00:34:36.415Z,1.83
2023-03-15T00:37:03.001Z,1.52
2023-03-15T00:39:29.738Z,1.50
2023-03-15T00:41:57.079Z,1.88
2023-03-15T00:44:24.626Z,0.80
2023-03-15T00:46:51.397Z,1.80
2023-03-15T00:49:18.495Z,1.60
2023-03-15T00:51:45.033Z,2.13
2023-03-15T00:54:13.962Z,2.10
2023-03-15T00:56:41.366Z,1.48
2023-03-15T00:59:08.640Z,1.60
2023-03-15T01:01:35.321Z,0.85
2023-03-15T01:04:01.911Z,1.70
2023-03-15T01:06:29.225Z,1.40
2023-03-15T01:08:56.742Z,2.00
2023-03-15T01:11:26.173Z,1.05
2023-03-15T01:13:54.261Z,1.58
2023-03-15T01:16:21.556Z,2.45
2023-03-15T01:18:48.598Z,0.93
2023-03-15T01:21:16.193Z,1.95
2023-03-15T01:23:42.943Z,2.17
2023-03-15T01:26:13.842Z,1.05
2023-03-15T01:28:40.605Z,2.72
2023-03-15T01:31:07.630Z,1.13
2023-03-15T01:33:34.197Z,2.58
2023-03-15T01:36:07.891Z,1.50
2023-03-15T01:38:34.527Z,0.88
2023-03-15T01:41:01.311Z,1.20
2023-03-15T01:43:29.603Z,2.03
2023-03-15T01:46:01.973Z,2.08
2023-03-15T01:48:36.073Z,1.17
2023-03-15T01:51:07.480Z,1.25
2023-03-15T01:53:34.258Z,1.92
2023-03-15T01:56:01.403Z,1.00
2023-03-15T01:58:28.498Z,1.30
2023-03-15T02:00:55.155Z,1.38
2023-03-15T02:03:25.597Z,1.48
2023-03-15T02:05:59.616Z,0.98
2023-03-15T02:08:32.844Z,1.20
2023-03-15T02:11:01.779Z,0.90
2023-03-15T02:13:29.898Z,1.77
2023-03-15T02:15:56.608Z,2.65
2023-03-15T02:18:23.438Z,2.22
2023-03-15T02:21:11.370Z,1.15
2023-03-15T02:23:37.916Z,1.83
2023-03-15T02:26:33.547Z,1.60
2023-03-15T02:29:01.227Z,1.52
2023-03-15T02:31:28.531Z,1.20
2023-03-15T02:33:57.988Z,1.30
2023-03-15T02:36:27.565Z,1.55
2023-03-15T02:38:55.380Z,1.58
2023-03-15T02:41:26.535Z,1.90
2023-03-15T02:43:55.456Z,1.23
2023-03-15T02:46:22.842Z,1.30
2023-03-15T02:48:51.626Z,1.83
2023-03-15T02:51:24.214Z,1.65
2023-03-15T02:53:51.094Z,1.60
2023-03-15T02:56:17.661Z,1.55
2023-03-15T02:58:47.468Z,2.03
2023-03-15T03:01:15.260Z,2.47
2023-03-15T03:03:43.516Z,1.52
2023-03-15T03:06:11.213Z,2.03
2023-03-15T03:08:37.806Z,1.48
2023-03-15T03:11:05.187Z,0.98
2023-03-15T03:13:31.740Z,1.05
2023-03-15T03:16:01.030Z,2.22
2023-03-15T03:18:28.768Z,1.45
2023-03-15T03:20:56.888Z,1.50
2023-03-15T03:23:25.898Z,1.60
2023-03-15T03:25:56.831Z,0.60
2023-03-15T03:28:25.414Z,1.70
2023-03-15T03:30:53.275Z,0.80
2023-03-15T03:33:21.204Z,2.03
2023-03-15T03:35:48.328Z,1.52
2023-03-15T03:38:15.562Z,1.52
2023-03-15T03:40:42.503Z,1.50
2023-03-15T03:43:09.320Z,0.90
2023-03-15T03:45:36.194Z,2.63
2023-03-15T03:48:02.863Z,1.45
2023-03-15T03:50:29.432Z,1.15
2023-03-15T03:52:55.996Z,1.38
2023-03-15T03:55:25.567Z,1.52
2023-03-15T03:57:53.157Z,1.67
2023-03-15T04:00:20.164Z,1.55
2023-03-15T04:02:46.798Z,0.98
2023-03-15T04:05:13.418Z,1.17
2023-03-15T04:07:39.974Z,0.98
2023-03-15T04:10:06.832Z,0.60
2023-03-15T04:12:33.493Z,1.33
2023-03-15T04:15:00.116Z,1.20
2023-03-15T04:17:26.679Z,1.10
2023-03-15T04:19:53.299Z,0.80
2023-03-15T04:22:19.896Z,1.40
2023-03-15T04:24:46.473Z,1.17
2023-03-15T04:27:14.796Z,1.23
2023-03-15T04:29:43.633Z,1.30
2023-03-15T04:32:10.841Z,1.15
2023-03-15T04:34:40.449Z,1.05
2023-03-15T04:37:07.113Z,1.23
2023-03-15T04:39:33.678Z,1.80
2023-03-15T04:42:00.219Z,0.68
2023-03-15T04:44:27.570Z,1.23
2023-03-15T04:46:55.075Z,0.40
2023-03-15T04:49:21.919Z,0.70
2023-03-15T04:51:48.549Z,1.58
2023-03-15T04:54:15.228Z,1.40
2023-03-15T04:56:42.233Z,1.30
2023-03-15T04:59:09.066Z,1.40
2023-03-15T05:01:35.661Z,1.20
2023-03-15T05:04:02.251Z,0.82
2023-03-15T05:06:29.439Z,0.90
2023-03-15T05:08:56.007Z,1.05
2023-03-15T05:11:22.658Z,1.15
2023-03-15T05:13:49.231Z,1.02
2023-03-15T05:16:15.863Z,1.73
2023-03-15T05:18:42.526Z,1.52
2023-03-15T05:21:09.111Z,0.82
2023-03-15T05:23:35.727Z,1.48
2023-03-15T05:26:03.827Z,0.55
2023-03-15T05:28:31.731Z,0.85
2023-03-15T05:31:00.475Z,1.48
2023-03-15T05:33:27.240Z,1.08
2023-03-15T05:35:56.053Z,1.35
2023-03-15T05:38:26.528Z,0.35
2023-03-15T05:40:53.919Z,1.88
2023-03-15T05:43:20.999Z,1.60
2023-03-15T05:45:48.709Z,0.85
2023-03-15T05:48:16.646Z,0.70
2023-03-15T05:50:43.443Z,1.08
2023-03-15T05:53:10.606Z,0.70
2023-03-15T05:55:37.380Z,1.63
2023-03-15T05:58:04.332Z,1.33
2023-03-15T06:00:30.922Z,1.77
2023-03-15T06:02:57.554Z,2.45
2023-03-15T06:05:24.234Z,0.63
2023-03-15T06:07:50.806Z,0.77
2023-03-15T06:10:17.428Z,1.60
2023-03-15T06:12:44.849Z,0.98
2023-03-15T06:15:11.549Z,1.15
2023-03-15T06:17:38.109Z,1.35
2023-03-15T06:20:05.178Z,0.60
2023-03-15T06:22:31.784Z,1.27
2023-03-15T06:24:58.371Z,0.82
2023-03-15T06:27:24.967Z,0.90
2023-03-15T06:29:51.582Z,1.27
2023-03-15T06:32:18.163Z,1.35
2023-03-15T06:34:44.811Z,0.98
2023-03-15T06:37:16.387Z,1.08
2023-03-15T06:39:46.904Z,1.65
2023-03-15T06:42:13.675Z,1.60
2023-03-15T06:44:41.309Z,1.60
2023-03-15T06:47:08.888Z,1.20
2023-03-15T06:49:35.686Z,1.30
2023-03-15T06:52:03.930Z,1.65
2023-03-15T06:54:30.668Z,1.20
2023-03-15T06:56:57.868Z,1.65
2023-03-15T06:59:24.588Z,1.25
2023-03-15T07:01:51.159Z,0.77
2023-03-15T07:04:17.754Z,1.67
2023-03-15T07:06:44.329Z,0.73
2023-03-15T07:09:10.888Z,1.17
2023-03-15T07:11:37.498Z,0.75
2023-03-15T07:14:04.129Z,1.35
2023-03-15T07:16:30.919Z,1.05
2023-03-15T07:19:01.191Z,0.70
2023-03-15T07:21:28.266Z,2.00
2023-03-15T07:23:55.377Z,1.15
2023-03-15T07:26:22.128Z,1.65
2023-03-15T07:28:48.746Z,1.50
2023-03-15T07:31:15.393Z,2.10
2023-03-15T07:33:42.098Z,1.80
2023-03-15T07:36:09.025Z,1.50
2023-03-15T07:38:36.217Z,2.03
2023-03-15T07:41:06.358Z,1.77
2023-03-15T07:43:33.793Z,0.95
2023-03-15T07:46:01.498Z,1.00
2023-03-15T07:48:29.494Z,1.10
2023-03-15T07:50:56.202Z,1.88
2023-03-15T07:53:23.102Z,2.20
2023-03-15T07:55:49.871Z,1.02
2023-03-15T07:58:18.542Z,1.63
2023-03-15T08:00:47.007Z,2.35
2023-03-15T08:03:13.599Z,2.97
2023-03-15T08:05:40.189Z,3.22
2023-03-15T08:08:07.292Z,5.10
2023-03-15T08:10:33.912Z,7.50
2023-03-15T08:13:00.494Z,7.35
2023-03-15T08:15:27.078Z,3.97
2023-03-15T08:17:53.710Z,5.28
2023-03-15T08:20:20.431Z,9.27
2023-03-15T08:22:48.699Z,10.27
2023-03-15T08:25:17.451Z,10.23
2023-03-15T08:27:44.251Z,6.38
2023-03-15T08:30:12.969Z,8.77
2023-03-15T08:32:40.610Z,11.55
2023-03-15T08:35:07.890Z,7.85
2023-03-15T08:37:34.856Z,6.35
2023-03-15T08:40:05.404Z,5.25
2023-03-15T08:42:31.981Z,7.13
2023-03-15T08:44:59.628Z,5.72
2023-03-15T08:47:26.739Z,2.95
2023-03-15T08:49:53.316Z,5.60
2023-03-15T08:52:21.432Z,3.90
2023-03-15T08:54:48.662Z,4.78
2023-03-15T08:57:15.478Z,6.32
2023-03-15T08:59:42.101Z,5.88
2023-03-15T09:02:11.454Z,4.55
2023-03-15T09:04:38.732Z,5.15
2023-03-15T09:07:06.146Z,4.90
2023-03-15T09:09:33.708Z,4.22
2023-03-15T09:12:00.497Z,4.35
2023-03-15T09:14:28.050Z,3.90
2023-03-15T09:16:54.752Z,4.18
2023-03-15T09:19:21.542Z,3.28
2023-03-15T09:21:48.274Z,6.00
2023-03-15T09:24:14.997Z,5.05
2023-03-15T09:26:41.569Z,5.50
2023-03-15T09:29:09.579Z,4.97
2023-03-15T09:31:36.169Z,3.75
2023-03-15T09:34:03.431Z,4.03
2023-03-15T09:36:30.045Z,3.45
2023-03-15T09:38:57.145Z,3.95
2023-03-15T09:41:41.113Z,3.90
2023-03-15T09:44:19.008Z,3.53
2023-03-15T09:46:54.480Z,3.97
2023-03-15T09:49:48.207Z,2.97
2023-03-15T09:52:17.585Z,3.95
2023-03-15T09:54:47.828Z,3.85
2023-03-15T09:57:35.079Z,5.05
2023-03-15T10:00:05.767Z,3.20
2023-03-15T10:02:32.386Z,3.25
2023-03-15T10:05:07.057Z,5.18
2023-03-15T10:07:35.391Z,3.80
2023-03-15T10:10:04.871Z,4.75
2023-03-15T10:12:40.804Z,7.05
2023-03-15T10:15:34.183Z,4.38
2023-03-15T10:18:26.862Z,4.13
2023-03-15T10:21:22.613Z,3.15
2023-03-15T10:23:53.383Z,4.25
2023-03-15T10:26:25.074Z,5.25
2023-03-15T10:28:53.009Z,4.22
2023-03-15T10:31:32.811Z,5.25
2023-03-15T10:34:11.645Z,4.03
2023-03-15T10:36:44.786Z,3.28
2023-03-15T10:39:12.429Z,2.78
2023-03-15T10:41:38.947Z,3.63
2023-03-15T10:44:12.991Z,5.90
2023-03-15T10:46:39.645Z,3.90
2023-03-15T10:49:12.249Z,4.05
2023-03-15T10:51:41.567Z,5.17
2023-03-15T10:54:21.056Z,5.15
2023-03-15T10:57:03.666Z,4.82
2023-03-15T10:59:32.976Z,5.63
2023-03-15T11:02:11.472Z,5.28
2023-03-15T11:04:51.425Z,7.22
2023-03-15T11:07:18.503Z,6.07
2023-03-15T11:09:53.996Z,6.63
2023-03-15T11:12:31.640Z,7.13
2023-03-15T11:15:04.227Z,6.97
2023-03-15T11:17:33.920Z,5.37
2023-03-15T11:20:13.321Z,5.57
2023-03-15T11:22:40.384Z,8.02
2023-03-15T11:25:16.320Z,6.53
2023-03-15T11:27:44.035Z,8.70
2023-03-15T11:30:15.451Z,9.65
2023-03-15T11:32:43.744Z,7.30
2023-03-15T11:35:19.400Z,5.32
2023-03-15T11:37:49.170Z,7.70
2023-03-15T11:40:22.273Z,5.05
2023-03-15T11:43:02.777Z,6.28
2023-03-15T11:45:51.077Z,6.32
2023-03-15T11:48:29.398Z,8.27
2023-03-15T11:50:56.504Z,9.38
2023-03-15T11:53:25.932Z,6.50
2023-03-15T11:55:55.882Z,5.85
2023-03-15T11:58:35.430Z,7.00
2023-03-15T12:01:06.959Z,5.25
2023-03-15T12:03:41.027Z,6.57
2023-03-15T12:06:10.260Z,7.22
2023-03-15T12:08:51.662Z,4.00
2023-03-15T12:11:23.873Z,5.07
2023-03-15T12:14:30.956Z,5.43
2023-03-15T12:17:29.614Z,6.05
2023-03-15T12:20:19.167Z,5.35
2023-03-15T12:23:19.072Z,6.65
2023-03-15T12:26:03.824Z,4.20
2023-03-15T12:28:37.130Z,5.60
2023-03-15T12:31:06.823Z,4.78
2023-03-15T12:33:44.566Z,3.50
2023-03-15T12:36:19.213Z,5.63
2023-03-15T12:39:13.957Z,4.75
2023-03-15T12:41:44.900Z,4.20
2023-03-15T12:44:33.648Z,3.78
2023-03-15T12:47:01.696Z,5.28
2023-03-15T12:49:30.499Z,4.68
2023-03-15T12:52:25.660Z,6.38
2023-03-15T12:55:00.652Z,5.90
2023-03-15T12:57:36.158Z,4.32
2023-03-15T13:00:20.539Z,5.32
2023-03-15T13:02:58.580Z,4.38
2023-03-15T13:05:31.340Z,4.20
2023-03-15T13:08:26.010Z,4.47
2023-03-15T13:11:19.896Z,5.88
2023-03-15T13:14:11.126Z,6.05
2023-03-15T13:17:08.863Z,5.32
2023-03-15T13:19:42.493Z,4.68
2023-03-15T13:22:22.021Z,4.15
2023-03-15T13:25:25.719Z,5.68
2023-03-15T13:27:58.860Z,4.82
2023-03-15T13:30:47.958Z,4.10
2023-03-15T13:33:26.500Z,4.43
2023-03-15T13:35:55.815Z,7.25
2023-03-15T13:38:27.213Z,4.55
2023-03-15T13:40:55.520Z,3.30
2023-03-15T13:43:46.243Z,5.05
2023-03-15T13:46:13.142Z,4.70
2023-03-15T13:48:43.860Z,3.60
2023-03-15T13:51:24.163Z,4.45
2023-03-15T13:53:56.421Z,3.70
2023-03-15T13:56:40.335Z,3.45
2023-03-15T13:59:15.354Z,4.38
2023-03-15T14:01:42.594Z,4.90
2023-03-15T14:04:14.582Z,3.10
2023-03-15T14:06:41.276Z,3.38
2023-03-15T14:09:11.685Z,5.55
2023-03-15T14:11:40.776Z,2.78
2023-03-15T14:14:36.957Z,3.53
2023-03-15T14:17:16.678Z,4.65
2023-03-15T14:19:52.459Z,4.68
2023-03-15T14:22:19.437Z,3.05
2023-03-15T14:24:48.693Z,4.55
2023-03-15T14:27:24.786Z,4.57
2023-03-15T14:29:54.882Z,4.03
2023-03-15T14:32:33.274Z,4.10
2023-03-15T14:35:04.069Z,3.45
2023-03-15T14:37:42.066Z,2.90
2023-03-15T14:40:17.705Z,4.03
2023-03-15T14:42:45.001Z,5.43
2023-03-15T14:45:12.172Z,4.95
2023-03-15T14:48:01.584Z,3.05
2023-03-15T14:50:33.686Z,5.13
2023-03-15T14:53:00.329Z,3.22
2023-03-15T14:55:35.192Z,3.45
2023-03-15T14:58:12.049Z,2.72
2023-03-15T15:00:38.802Z,3.65
2023-03-15T15:03:09.952Z,3.78
2023-03-15T15:05:36.684Z,3.72
2023-03-15T15:08:10.098Z,4.78
2023-03-15T15:13:06.709Z,2.38
2023-03-15T15:15:47.377Z,3.90
2023-03-15T15:18:20.783Z,3.45
2023-03-15T15:20:47.649Z,2.88
2023-03-15T15:23:23.303Z,3.90
2023-03-15T15:25:50.610Z,3.95
2023-03-15T15:28:33.300Z,4.70
2023-03-15T15:31:01.066Z,5.93
2023-03-15T15:33:27.642Z,4.15
2023-03-15T15:35:55.906Z,2.97
2023-03-15T15:38:25.661Z,3.45
2023-03-15T15:40:52.253Z,3.85
2023-03-15T15:43:19.058Z,4.57
2023-03-15T15:45:45.646Z,2.67
2023-03-15T15:48:12.267Z,4.80
2023-03-15T15:50:38.875Z,3.78
2023-03-15T15:53:06.427Z,4.15
2023-03-15T15:55:35.993Z,3.03
2023-03-15T15:58:03.696Z,2.78
2023-03-15T16:00:30.687Z,6.10
2023-03-15T16:02:58.040Z,4.50
2023-03-15T16:05:26.967Z,3.97
2023-03-15T16:07:54.871Z,3.78
2023-03-15T16:10:24.738Z,6.53
2023-03-15T16:12:52.234Z,3.42
2023-03-15T16:15:19.194Z,3.40
2023-03-15T16:17:46.226Z,3.80
2023-03-15T16:20:13.990Z,5.32
2023-03-15T16:22:47.087Z,3.45
2023-03-15T16:25:23.785Z,2.30
2023-03-15T16:28:00.695Z,4.30
2023-03-15T16:30:30.496Z,3.15
2023-03-15T16:32:57.793Z,2.55
2023-03-15T16:35:30.912Z,2.20
2023-03-15T16:37:58.188Z,2.85
2023-03-15T16:40:30.663Z,3.47
2023-03-15T16:42:57.448Z,4.13
2023-03-15T16:45:24.732Z,3.70
2023-03-15T16:47:51.657Z,2.83
2023-03-15T16:50:18.367Z,2.78
2023-03-15T16:52:46.303Z,2.60
2023-03-15T16:55:18.182Z,3.30
2023-03-15T16:57:44.760Z,2.67
2023-03-15T17:00:17.170Z,2.47
2023-03-15T17:02:54.452Z,3.70
2023-03-15T17:05:21.409Z,2.05
2023-03-15T17:07:49.321Z,2.10
2023-03-15T17:10:32.292Z,3.10
2023-03-15T17:13:02.447Z,2.30
2023-03-15T17:15:29.590Z,2.85
2023-03-15T17:17:57.616Z,2.92
2023-03-15T17:20:27.273Z,1.83
2023-03-15T17:23:04.294Z,1.90
2023-03-15T17:25:31.910Z,1.52
2023-03-15T17:28:00.267Z,3.30
2023-03-15T17:30:32.679Z,2.78
2023-03-15T17:32:59.531Z,3.53
2023-03-15T17:35:33.093Z,2.50
2023-03-15T17:38:01.422Z,2.38
2023-03-15T17:40:30.617Z,3.05
2023-03-15T17:42:59.679Z,2.78
2023-03-15T17:45:28.360Z,2.58
2023-03-15T17:47:55.488Z,3.00
2023-03-15T17:50:23.692Z,1.52
2023-03-15T17:52:54.804Z,2.08
2023-03-15T17:55:24.202Z,2.85
2023-03-15T17:57:55.165Z,1.63
2023-03-15T18:00:23.239Z,2.45
2023-03-15T18:02:55.670Z,2.15
2023-03-15T18:05:26.013Z,2.42
2023-03-15T18:08:00.597Z,2.08
2023-03-15T18:10:33.637Z,3.58
2023-03-15T18:13:00.212Z,2.47
2023-03-15T18:15:26.784Z,2.03
2023-03-15T18:17:53.432Z,2.47
2023-03-15T18:20:22.184Z,3.25
2023-03-15T18:22:49.296Z,1.65
2023-03-15T18:25:21.870Z,2.10
2023-03-15T18:27:49.192Z,1.70
2023-03-15T18:30:17.292Z,2.22
2023-03-15T18:32:44.058Z,2.20
2023-03-15T18:35:25.451Z,2.50
2023-03-15T18:37:54.138Z,2.13
2023-03-15T18:40:21.287Z,2.00
2023-03-15T18:42:48.235Z,1.70
2023-03-15T18:45:18.245Z,1.25
2023-03-15T18:47:44.803Z,1.42
2023-03-15T18:50:11.969Z,2.25
2023-03-15T18:52:38.714Z,1.58
2023-03-15T18:55:07.823Z,1.88
2023-03-15T18:57:35.613Z,1.40
2023-03-15T19:00:07.269Z,1.55
2023-03-15T19:02:34.042Z,2.33
2023-03-15T19:05:00.710Z,2.10
2023-03-15T19:07:28.176Z,2.22
2023-03-15T19:09:54.756Z,0.95
2023-03-15T19:12:21.338Z,1.83
2023-03-15T19:14:47.953Z,1.27
2023-03-15T19:17:14.601Z,1.35
2023-03-15T19:19:41.275Z,1.40
2023-03-15T19:22:07.860Z,2.33
2023-03-15T19:24:36.267Z,2.08
2023-03-15T19:27:03.075Z,2.45
2023-03-15T19:29:30.004Z,1.85
2023-03-15T19:31:56.573Z,1.83
2023-03-15T19:34:24.745Z,2.33
2023-03-15T19:36:52.229Z,1.70
2023-03-15T19:39:18.897Z,1.63
2023-03-15T19:41:47.054Z,2.03
2023-03-15T19:44:13.706Z,1.33
2023-03-15T19:46:40.383Z,1.25
2023-03-15T19:49:06.967Z,0.85
2023-03-15T19:51:33.507Z,1.20
2023-03-15T19:54:00.081Z,1.90
2023-03-15T19:56:26.663Z,1.25
2023-03-15T19:58:53.229Z,2.00
2023-03-15T20:01:19.834Z,1.88
2023-03-15T20:03:46.614Z,1.15
2023-03-15T20:06:14.064Z,1.58
2023-03-15T20:08:41.722Z,1.77
2023-03-15T20:11:11.153Z,1.45
2023-03-15T20:13:37.719Z,1.10
2023-03-15T20:16:09.908Z,1.77
2023-03-15T20:18:36.575Z,1.85
2023-03-15T20:21:05.403Z,2.38
2023-03-15T20:23:32.041Z,1.00
2023-03-15T20:26:10.865Z,1.40
2023-03-15T20:28:38.648Z,2.83
2023-03-15T20:31:09.841Z,1.25
2023-03-15T20:33:36.693Z,1.35
2023-03-15T20:36:03.956Z,1.40
2023-03-15T20:38:30.658Z,1.77
2023-03-15T20:40:57.285Z,1.42
2023-03-15T20:43:23.972Z,1.80
2023-03-15T20:45:54.663Z,1.15
2023-03-15T20:48:23.226Z,0.75
2023-03-15T20:50:49.779Z,1.65
2023-03-15T20:53:16.348Z,1.35
2023-03-15T20:55:43.685Z,1.42
2023-03-15T20:58:11.161Z,1.85
2023-03-15T21:00:40.931Z,1.98
2023-03-15T21:03:07.823Z,1.33
2023-03-15T21:05:35.623Z,1.00
2023-03-15T21:08:02.260Z,1.05
2023-03-15T21:10:28.882Z,1.05
2023-03-15T21:12:55.759Z,1.15
2023-03-15T21:15:22.442Z,1.20
2023-03-15T21:17:49.885Z,1.73
2023-03-15T21:20:18.122Z,1.63
2023-03-15T21:22:44.718Z,1.50
2023-03-15T21:25:11.670Z,1.48
2023-03-15T21:27:38.282Z,1.75
2023-03-15T21:30:05.785Z,1.25
2023-03-15T21:32:34.746Z,1.50
2023-03-15T21:35:01.400Z,1.27
2023-03-15T21:37:27.987Z,1.10
2023-03-15T21:39:54.642Z,0.57
2023-03-15T21:42:21.263Z,1.25
2023-03-15T21:44:47.832Z,1.10
2023-03-15T21:47:16.642Z,1.23
2023-03-15T21:49:45.019Z,1.92
2023-03-15T21:52:12.520Z,1.85
2023-03-15T21:54:39.497Z,0.93
2023-03-15T21:57:06.098Z,1.27
2023-03-15T21:59:32.736Z,1.45
2023-03-15T22:01:59.286Z,0.88
2023-03-15T22:04:25.897Z,1.45
2023-03-15T22:06:52.964Z,0.52
2023-03-15T22:09:20.901Z,1.20
2023-03-15T22:11:48.418Z,2.13
2023-03-15T22:14:15.293Z,1.13
2023-03-15T22:16:41.885Z,1.20
2023-03-15T22:19:08.510Z,0.70
2023-03-15T22:21:35.123Z,1.55
2023-03-15T22:24:01.702Z,1.92
2023-03-15T22:26:28.365Z,1.02
2023-03-15T22:28:54.962Z,1.05
2023-03-15T22:31:21.660Z,0.68
2023-03-15T22:33:48.288Z,1.48
2023-03-15T22:36:17.057Z,0.82
2023-03-15T22:38:50.172Z,1.40
2023-03-15T22:41:18.660Z,1.05
2023-03-15T22:43:45.751Z,1.30
2023-03-15T22:46:12.486Z,1.13
2023-03-15T22:48:39.103Z,1.50
2023-03-15T22:51:10.952Z,0.75
2023-03-15T22:53:37.594Z,1.38
2023-03-15T22:56:04.974Z,1.50
2023-03-15T22:58:31.740Z,1.98
2023-03-15T23:00:58.286Z,1.20
2023-03-15T23:03:26.334Z,2.10
2023-03-15T23:05:54.263Z,0.70
2023-03-15T23:08:20.838Z,0.70
2023-03-15T23:10:47.497Z,0.88
2023-03-15T23:13:14.721Z,1.40
2023-03-15T23:15:41.752Z,1.77
2023-03-15T23:18:08.344Z,1.13
2023-03-15T23:20:37.482Z,1.30
2023-03-15T23:23:04.043Z,1.15
2023-03-15T23:25:30.587Z,0.77
2023-03-15T23:27:57.360Z,0.90
2023-03-15T23:30:25.410Z,1.73
2023-03-15T23:32:57.591Z,1.02
2023-03-15T23:35:27.699Z,1.63
2023-03-15T23:37:54.674Z,1.00
2023-03-15T23:40:21.509Z,0.98
2023-03-15T23:42:48.422Z,1.05
2023-03-15T23:45:15.513Z,1.33
2023-03-15T23:47:42.392Z,1.55
2023-03-15T23:50:10.093Z,0.63
2023-03-15T23:52:36.660Z,0.60
2023-03-15T23:55:03.199Z,1.38
2023-03-15T23:57:29.828Z,1.00
2023-03-15T23:59:56.513Z,0.98
